KSGH/SGH METAR and TAF weather

Enter ICAO airport designator
Station Type Date Time Source
KSGH METAR 2019/08/23 15:56 UTC NOAA

KSGH 231556Z AUTO 06012KT 10SM CLR 21/14 A3016 RMK AO2 SLP211 T02060139


Station Type Date Time Source
KSGH Decoded METAR 2019/08/23 15:56 UTC NOAA

Station name not available
Aug 23, 2019 - 11:56 AM EDT / 2019.08.23 1556 UTC
Wind: from the ENE (060 degrees) at 14 MPH (12 KT):0
Visibility: 10 mile(s):0
Sky conditions: clear
Temperature: 69.1 F (20.6 C)
Dew Point: 57.0 F (13.9 C)
Relative Humidity: 65%
Pressure (altimeter): 30.16 in. Hg (1021 hPa)
ob: KSGH 231556Z AUTO 06012KT 10SM CLR 21/14 A3016 RMK AO2 SLP211 T02060139
cycle: 16

Station Type Date Time Source
KSGH TAF UTC NOAA

Error!

Example: see airport list